Latest Weather Observations for Glen Innes Airport

IDN60801

Issued at 10:42 am EDT Saturday 15 December 2018 (issued every 10 minutes, with the page automatically refreshed every 10 minutes)

About weather observations | Map of weather stations | Latest weather observations for NSW | Other Formats
Station Details ID: 056243 Name: GLEN INNES AIRPORT AWS Lat: -29.68 Lon: 151.69 Height: 1044.3 m
Data from the previous 72 hours. | See also: Recent months at Glen Innes Airport
Date/Time
EDT
Temp
°C
App
Temp
°C
Dew
Point
°C
Rel
Hum
%
Delta-T
°C
Wind Press
QNH
hPa
Press
MSL
hPa
Rain since
9am
mm
Dir  Spd
km/h
Gust
km/h
Spd
kts
Gust
kts
15/10:30am 22.6 20.2 15.4 64 4.5 NNE 22 35 12 19 1013.4 1008.2 0.0
15/10:00am 22.7 21.0 15.8 65 4.3 NNE 19 28 10 15 1013.2 1008.0 0.0
15/09:30am 22.5 20.4 16.3 68 3.9 NE 22 33 12 18 1013.3 1008.1 0.0
15/09:00am 21.0 18.5 15.1 69 3.7 NE 22 32 12 17 1013.3 1008.1 1.0
15/08:30am 20.8 18.8 15.6 72 3.2 NE 20 32 11 17 1013.4 1008.2 1.0
15/08:00am 20.1 18.7 15.5 75 2.9 ENE 17 22 9 12 1013.0 1007.8 1.0
15/07:30am 19.2 18.4 16.1 82 1.9 E 15 20 8 11 1012.6 1007.4 1.0
15/07:00am 17.7 16.4 15.7 88 1.2 ESE 17 20 9 11 1012.1 1006.9 1.0
15/06:30am 16.1 14.8 14.8 92 0.8 ESE 15 20 8 11 1011.5 1006.3 1.0
15/06:00am 15.3 13.8 14.2 93 0.7 E 15 17 8 9 1011.5 1006.3 1.0
15/05:30am 15.1 13.8 13.8 92 0.8 ESE 13 17 7 9 1011.2 1006.0 1.0
15/05:00am 15.4 14.6 14.1 92 0.8 SE 11 15 6 8 1011.0 1005.7 1.0
15/04:30am 15.7 14.7 14.6 93 0.7 SE 13 17 7 9 1010.4 1005.2 1.0
15/04:00am 15.1 14.1 13.5 90 0.9 SSE 11 15 6 8 1010.3 1005.1 1.0
15/03:30am 15.8 14.7 14.3 91 0.9 SE 13 15 7 8 1010.2 1005.0 1.0
15/03:00am 15.7 14.6 13.0 84 1.6 SE 11 13 6 7 1010.3 1005.1 1.0
15/02:30am 16.2 15.0 12.9 81 1.9 SE 11 13 6 7 1010.4 1005.2 1.0
15/02:00am 17.0 16.3 13.1 78 2.3 ENE 9 13 5 7 1010.5 1005.3 1.0
15/01:30am 16.7 15.9 13.0 79 2.2 NE 9 13 5 7 1010.8 1005.5 1.0
15/01:00am 17.9 18.3 13.6 76 2.6 NE 4 7 2 4 1010.9 1005.6 1.0
15/12:30am 18.5 18.5 14.2 76 2.6 NE 7 15 4 8 1011.1 1005.9 1.0
15/12:00am 18.4 18.2 14.7 79 2.3 ENE 9 13 5 7 1011.2 1006.0 1.0
 
Date/Time
EDT
Temp
°C
App
Temp
°C
Dew
Point
°C
Rel
Hum
%
Delta-T
°C
Wind Press
QNH
hPa
Press
MSL
hPa
Rain since
9am
mm
Dir  Spd
km/h
Gust
km/h
Spd
kts
Gust
kts
14/11:30pm 18.9 18.9 15.2 79 2.3 NNE 9 13 5 7 1011.3 1006.1 1.0
14/11:00pm 18.0 17.4 15.6 86 1.5 ENE 13 19 7 10 1011.1 1005.9 1.0
14/10:30pm 16.8 16.8 15.2 90 1.0 SE 9 11 5 6 1011.3 1006.1 1.0
14/10:00pm 16.5 16.1 14.2 86 1.4 SE 9 9 5 5 1010.9 1005.6 1.0
14/09:30pm 17.8 17.6 14.7 82 1.9 ENE 9 11 5 6 1010.6 1005.4 1.0
14/09:00pm 19.1 18.0 15.4 79 2.3 NE 15 17 8 9 1010.4 1005.2 1.0
14/08:30pm 19.4 19.0 15.1 76 2.6 NE 11 17 6 9 1010.2 1005.0 1.0
14/08:00pm 21.1 20.1 15.6 71 3.4 NNE 15 24 8 13 1009.9 1004.6 1.0
14/07:30pm 21.9 20.6 15.7 68 3.9 NNE 17 26 9 14 1009.0 1003.7 1.0
14/07:00pm 22.6 23.0 16.2 67 4.1 NNE 9 13 5 7 1008.5 1003.3 1.0
14/06:30pm 22.4 21.7 15.5 65 4.3 N 13 17 7 9 1007.9 1002.6 1.0
14/06:00pm 21.7 21.4 15.5 68 3.9 NE 11 15 6 8 1007.9 1002.6 1.0
14/05:30pm 21.3 20.6 16.3 73 3.2 NW 15 20 8 11 1008.1 1002.8 1.0
14/05:00pm 20.8 19.8 17.6 82 2.1 WNW 19 26 10 14 1008.0 1002.7 1.0
14/04:30pm 20.3 19.2 16.3 78 2.5 NW 17 24 9 13 1008.1 1002.8 0.8
14/04:00pm 22.1 21.4 15.5 66 4.1 NNW 13 17 7 9 1008.0 1002.7 0.0
14/03:30pm 22.6 20.4 15.0 62 4.7 NNW 20 26 11 14 1008.3 1003.0 0.0
14/03:00pm 23.9 22.1 15.4 59 5.4 N 19 24 10 13 1007.9 1002.6 0.0
14/02:30pm 24.2 22.0 14.9 56 5.8 N 20 28 11 15 1008.0 1002.7 0.0
14/02:00pm 23.8 21.1 14.5 56 5.8 NNW 22 33 12 18 1008.2 1002.9 0.0
14/01:30pm 23.7 20.8 14.1 55 5.9 NNW 22 33 12 18 1008.4 1003.2 0.0
14/01:00pm 23.9 20.7 15.4 59 5.4 NNW 26 35 14 19 1008.6 1003.4 0.0
14/12:30pm 24.0 20.9 14.4 55 5.9 NNW 24 35 13 19 1009.0 1003.7 0.0
14/12:00pm 24.0 19.8 13.5 52 6.4 NW 28 39 15 21 1008.9 1003.6 0.0
14/11:30am 23.6 20.2 13.8 54 6.0 NW 24 33 13 18 1008.8 1003.5 0.0
14/11:00am 23.3 19.4 14.3 57 5.6 NW 28 35 15 19 1008.8 1003.5 0.0
14/10:30am 22.6 18.0 14.7 61 4.9 NW 32 41 17 22 1008.6 1003.4 0.0
14/10:00am 22.3 18.2 14.9 63 4.6 NW 30 43 16 23 1008.6 1003.4 0.0
14/09:30am 21.5 16.7 14.6 65 4.2 NW 33 48 18 26 1008.9 1003.6 0.0
14/09:00am 20.9 17.7 15.2 70 3.5 NNW 26 35 14 19 1008.9 1003.6 41.4
14/08:30am 19.6 17.3 15.7 78 2.4 NNW 22 32 12 17 1008.8 1003.5 41.4
14/08:00am 18.5 16.8 15.7 84 1.7 NNW 19 24 10 13 1009.1 1003.8 41.4
14/07:30am 18.8 17.9 16.8 88 1.3 NNW 17 22 9 12 1009.1 1003.8 41.4
14/07:27am 18.3 17.5 16.1 87 1.4 NNW 15 20 8 11 1009.0 1003.7 41.4
14/07:03am 17.4 16.4 15.6 89 1.1 N 15 24 8 13 1008.9 1003.6 41.4
14/07:00am 17.4 16.4 15.6 89 1.1 N 15 24 8 13 1009.0 1003.7 41.4
14/06:49am 17.4 16.1 15.7 90 1.0 NNW 17 22 9 12 1008.9 1003.6 41.4
14/06:30am 17.3 15.5 15.6 90 1.0 N 19 28 10 15 1008.5 1003.3 41.4
14/06:00am 17.2 16.2 15.7 91 0.9 N 15 20 8 11 1008.3 1003.0 41.4
14/05:30am 17.0 15.5 15.3 90 1.0 N 17 26 9 14 1008.0 1002.7 41.4
14/05:23am 17.1 14.3 15.3 89 1.1 N 24 33 13 18 1008.0 1002.7 41.4
14/05:12am 17.4 14.8 15.9 91 0.9 N 24 43 13 23 1007.9 1002.6 41.4
14/05:03am 16.4 16.0 15.3 93 0.7 N 11 24 6 13 1008.0 1002.7 40.0
14/05:00am 16.4 16.4 15.3 93 0.7 N 9 17 5 9 1008.0 1002.7 37.8
14/04:55am 16.3 15.8 15.0 92 0.8 N 11 15 6 8 1007.9 1002.6 37.2
14/04:53am 16.3 15.8 15.0 92 0.8 N 11 17 6 9 1007.9 1002.6 37.2
14/04:43am 16.4 15.6 15.1 92 0.8 N 13 19 7 10 1007.9 1002.6 36.6
14/04:33am 16.3 16.1 14.8 91 0.9 N 9 19 5 10 1008.1 1002.8 35.6
14/04:30am 16.4 16.3 14.9 91 0.9 N 9 13 5 7 1008.0 1002.7 34.6
14/04:00am 15.6 15.3 14.3 92 0.8 ENE 9 11 5 6 1007.4 1002.1 33.2
14/03:30am 15.9 17.3 14.4 91 0.9 CALM 0 0 0 0 1007.7 1002.4 33.2
14/03:00am 16.1 17.6 14.6 91 0.9 CALM 0 0 0 0 1007.9 1002.6 33.2
14/02:30am 16.0 16.3 14.5 91 0.9 N 6 7 3 4 1008.0 1002.7 33.2
14/02:00am 16.2 16.4 14.7 91 0.9 N 7 9 4 5 1007.9 1002.6 33.0
14/01:30am 16.2 16.5 14.9 92 0.8 NNE 7 11 4 6 1008.0 1002.7 33.0
14/01:07am 16.1 16.3 14.8 92 0.8 NE 7 11 4 6 1008.2 1002.9 33.0
14/01:00am 16.3 16.2 15.0 92 0.8 NNE 9 11 5 6 1008.1 1002.8 33.0
14/12:30am 16.5 16.1 15.2 92 0.8 NNE 11 17 6 9 1008.8 1003.5 33.0
14/12:00am 16.6 15.9 15.3 92 0.8 N 13 17 7 9 1009.2 1003.9 33.0
 
Date/Time
EDT
Temp
°C
App
Temp
°C
Dew
Point
°C
Rel
Hum
%
Delta-T
°C
Wind Press
QNH
hPa
Press
MSL
hPa
Rain since
9am
mm
Dir  Spd
km/h
Gust
km/h
Spd
kts
Gust
kts
13/11:50pm 16.6 15.8 15.1 91 0.9 NNE 13 20 7 11 1009.0 1003.7 33.0
13/11:30pm 16.6 15.8 15.0 90 1.0 NNE 13 20 7 11 1009.0 1003.7 33.0
13/11:00pm 17.0 16.6 15.2 89 1.1 NNE 11 20 6 11 1009.5 1004.3 33.0
13/10:30pm 17.0 16.6 15.3 90 1.0 NNE 11 17 6 9 1009.9 1004.6 33.0
13/10:05pm 16.9 16.2 15.4 91 0.9 NNE 13 20 7 11 1009.9 1004.6 33.0
13/10:00pm 17.0 16.3 15.5 91 0.9 NNE 13 20 7 11 1009.8 1004.5 33.0
13/09:30pm 16.8 16.1 15.5 92 0.8 NNE 13 20 7 11 1010.0 1004.7 33.0
13/09:28pm 16.8 16.1 15.5 92 0.8 NNE 13 20 7 11 1010.1 1004.8 33.0
13/09:00pm 16.5 14.4 15.2 92 0.8 NNE 20 35 11 19 1009.8 1004.5 33.0
13/08:30pm 16.5 15.0 15.4 93 0.7 NNE 17 28 9 15 1010.0 1004.7 31.6
13/08:00pm 16.4 16.8 15.3 93 0.7 ESE 7 13 4 7 1009.9 1004.6 30.2
13/07:30pm 16.2 14.6 14.9 92 0.8 SSE 17 20 9 11 1008.8 1003.5 30.0
13/07:24pm 16.2 14.9 14.9 92 0.8 SSE 15 20 8 11 1008.8 1003.5 29.2
13/07:00pm 16.3 11.6 14.8 91 0.9 WSW 33 52 18 28 1010.2 1005.0 24.8
13/06:59pm 16.3 11.6 14.8 91 0.9 WSW 33 52 18 28 1010.3 1005.1 24.0
13/06:52pm 17.5 15.8 15.7 89 1.1 W 19 46 10 25 1010.4 1005.2 9.8
13/06:43pm 17.6 16.7 14.9 84 1.6 NW 13 24 7 13 1008.2 1002.9 7.0
13/06:30pm 18.1 18.7 15.9 87 1.4 SE 7 13 4 7 1007.1 1001.8 5.0
13/06:00pm 17.9 17.5 15.2 84 1.7 ESE 11 13 6 7 1007.0 1001.7 4.4
13/05:30pm 18.0 18.1 15.4 85 1.6 S 9 13 5 7 1007.2 1001.9 4.4
13/05:00pm 18.6 18.3 14.3 76 2.6 ENE 9 13 5 7 1007.1 1001.8 3.8
13/04:31pm 18.9 18.4 14.8 77 2.5 N 11 17 6 9 1007.3 1002.0 3.8
13/04:30pm 18.9 18.7 15.8 82 1.9 N 11 17 6 9 1007.3 1002.0 3.8
13/04:15pm 19.4 17.2 15.9 80 2.2 NW 22 32 12 17 1007.8 1002.5 3.0
13/04:00pm 21.7 18.7 14.8 65 4.3 NW 24 33 13 18 1007.4 1002.1 0.2
13/03:30pm 24.9 20.8 13.8 50 6.8 NNW 28 37 15 20 1007.4 1002.1 0.0
13/03:00pm 24.7 21.3 14.8 54 6.2 NW 26 35 14 19 1008.4 1003.2 0.0
13/02:30pm 25.3 20.8 13.8 49 7.1 NW 30 39 16 21 1009.3 1004.1 0.0
13/02:00pm 24.7 20.9 14.8 54 6.2 NW 28 35 15 19 1010.0 1004.7 0.0
13/01:30pm 25.5 21.9 15.2 53 6.5 NW 28 41 15 22 1010.0 1004.7 0.0
13/01:00pm 25.5 22.3 15.2 53 6.5 NW 26 37 14 20 1010.1 1004.8 0.0
13/12:30pm 24.5 20.3 14.6 54 6.2 NW 30 46 16 25 1010.4 1005.2 0.0
13/12:00pm 25.6 22.4 16.2 56 6.0 NNW 28 39 15 21 1010.4 1005.2 0.0
13/11:50am 24.5 21.0 15.4 57 5.7 NW 28 46 15 25 1010.6 1005.4 0.0
13/11:30am 24.8 22.6 16.8 61 5.2 NNW 24 33 13 18 1010.8 1005.5 0.0
13/11:00am 22.7 20.1 15.0 61 4.8 NNW 22 32 12 17 1011.3 1006.1 0.0
13/10:30am 21.3 18.6 14.5 65 4.2 NNW 22 32 12 17 1011.9 1006.7 0.0
13/10:00am 21.3 18.9 15.4 69 3.7 NNW 22 28 12 15 1012.1 1006.9 0.0
13/09:30am 21.1 17.5 14.3 65 4.2 NNW 26 33 14 18 1012.4 1007.2 0.0
13/09:00am 20.2 17.5 15.6 75 2.9 NNW 24 33 13 18 1012.7 1007.6 8.8
13/08:30am 19.5 17.0 15.2 76 2.7 NNW 22 30 12 16 1012.9 1007.7 8.8
13/08:00am 17.7 17.0 14.2 80 2.1 NNW 11 15 6 8 1013.2 1008.0 8.8
13/07:30am 16.8 16.0 14.1 84 1.6 NNW 11 13 6 7 1013.3 1008.1 8.8
13/07:00am 16.2 16.3 13.9 86 1.4 NW 6 9 3 5 1013.4 1008.2 8.8
13/06:30am 14.6 14.2 13.0 90 0.9 NNW 7 7 4 4 1013.2 1008.0 8.8
13/06:00am 14.6 15.5 13.0 90 0.9 CALM 0 0 0 0 1013.2 1008.0 8.8
13/05:30am 14.0 14.6 12.0 88 1.1 CALM 0 0 0 0 1013.1 1007.9 8.8
13/05:00am 14.5 15.3 12.5 88 1.2 CALM 0 0 0 0 1012.7 1007.6 8.8
13/04:30am 14.8 14.4 12.5 86 1.3 SSE 6 9 3 5 1012.7 1007.6 8.6
13/04:00am 15.3 15.0 12.8 85 1.5 ENE 6 9 3 5 1012.5 1007.3 8.6
13/03:30am 15.3 15.1 13.0 86 1.3 NNW 6 7 3 4 1013.0 1007.8 8.6
13/03:00am 14.8 14.7 13.2 90 0.9 ENE 6 7 3 4 1012.7 1007.6 8.6
13/02:30am 15.0 15.0 13.7 92 0.8 E 6 7 3 4 1013.4 1008.2 8.6
13/02:00am 14.8 14.6 13.5 92 0.8 ESE 7 9 4 5 1013.9 1008.7 8.6
13/01:30am 15.4 15.0 14.1 92 0.8 ESE 9 9 5 5 1014.5 1009.4 8.6
13/01:00am 15.3 15.2 14.0 92 0.8 SE 7 11 4 6 1014.5 1009.4 8.6
13/12:30am 15.2 14.7 13.9 92 0.8 SE 9 11 5 6 1014.6 1009.5 8.6
13/12:00am 14.8 14.7 13.3 91 0.9 E 6 9 3 5 1015.2 1010.0 8.6
 
Date/Time
EDT
Temp
°C
App
Temp
°C
Dew
Point
°C
Rel
Hum
%
Delta-T
°C
Wind Press
QNH
hPa
Press
MSL
hPa
Rain since
9am
mm
Dir  Spd
km/h
Gust
km/h
Spd
kts
Gust
kts
12/11:30pm 15.2 14.3 13.7 91 0.9 E 11 15 6 8 1015.0 1009.8 8.6
12/11:00pm 15.7 15.0 14.2 91 0.9 E 11 13 6 7 1015.2 1010.0 8.6
12/10:30pm 15.9 14.8 14.3 90 1.0 ESE 13 17 7 9 1015.5 1010.4 8.6
12/10:00pm 16.2 14.8 14.6 90 1.0 ESE 15 20 8 11 1015.5 1010.4 8.6
12/09:44pm 16.4 14.7 14.6 89 1.1 E 17 20 9 11 1015.5 1010.4 8.6
12/09:30pm 16.6 14.4 14.8 89 1.1 ENE 20 28 11 15 1015.4 1010.3 8.6
12/09:21pm 16.6 15.3 14.8 89 1.1 ENE 15 20 8 11 1015.4 1010.3 8.6
12/09:00pm 16.5 15.2 14.9 90 1.0 E 15 19 8 10 1015.1 1009.9 8.6
12/08:30pm 16.7 15.4 14.7 88 1.2 ENE 15 19 8 10 1015.6 1010.5 8.6
12/08:00pm 16.8 15.6 15.0 89 1.1 E 15 19 8 10 1015.4 1010.3 8.6
12/07:30pm 16.9 16.5 15.1 89 1.1 ESE 11 15 6 8 1015.5 1010.4 8.6
12/07:00pm 16.9 15.8 15.2 90 1.0 NE 15 22 8 12 1015.5 1010.4 8.6
12/06:30pm 16.7 14.6 15.2 91 0.9 ESE 20 28 11 15 1015.1 1009.9 8.6
12/06:00pm 16.6 15.0 15.1 91 0.9 ESE 17 19 9 10 1015.6 1010.5 7.2
12/05:53pm 16.6 15.0 15.1 91 0.9 ESE 17 20 9 11 1015.6 1010.5 6.6
12/05:35pm 16.9 15.8 15.4 91 0.9 ESE 15 22 8 12 1015.6 1010.5 5.8
12/05:30pm 17.1 16.5 15.6 91 0.9 ESE 13 19 7 10 1015.6 1010.5 5.8
12/05:27pm 17.3 17.1 15.8 91 0.9 ESE 11 15 6 8 1015.6 1010.5 5.6
12/05:26pm 17.3 17.1 15.8 91 0.9 ESE 11 15 6 8 1015.6 1010.5 5.6
12/05:14pm 17.3 16.3 15.6 90 1.0 SSE 15 19 8 10 1015.6 1010.5 5.4
12/05:00pm 17.5 16.1 15.5 88 1.2 ESE 17 20 9 11 1015.3 1010.1 4.0
12/04:30pm 18.5 14.7 14.6 78 2.4 ESE 28 37 15 20 1014.6 1009.5 1.6
12/04:00pm 22.2 18.2 15.1 64 4.4 ESE 30 37 16 20 1013.9 1008.7 0.0
12/03:37pm 22.0 19.0 13.6 59 5.1 SSE 22 46 12 25 1013.9 1008.7 0.0
12/03:30pm 26.2 23.2 9.1 34 9.8 W 15 28 8 15 1014.3 1009.1 0.0
12/03:00pm 26.2 21.5 9.1 34 9.8 NNW 24 35 13 19 1014.3 1009.1 0.0
12/02:30pm 26.5 23.2 9.4 34 9.9 WNW 17 26 9 14 1014.7 1009.6 0.0
12/02:00pm 26.2 23.6 10.8 38 9.1 NNW 15 24 8 13 1015.3 1010.1 0.0
12/01:30pm 25.9 24.2 11.3 40 8.7 W 11 17 6 9 1016.0 1010.8 0.0
12/01:00pm 24.6 23.3 11.2 43 7.9 ENE 9 19 5 10 1016.3 1011.2 0.0
12/12:30pm 24.9 23.7 11.5 43 7.9 NNW 9 13 5 7 1016.8 1011.7 0.0
12/12:00pm 23.7 22.4 11.4 46 7.2 ENE 9 17 5 9 1017.3 1012.2 0.0
12/11:30am 25.0 24.5 12.6 46 7.5 ESE 7 11 4 6 1017.6 1012.5 0.0
12/11:00am 24.1 23.0 12.1 47 7.2 WSW 9 17 5 9 1017.9 1012.9 0.0

Other Formats:

Comma delimited format used in spreadsheet applications
http://www.bom.gov.au/fwo/IDN60801/IDN60801.94588.axf

JavaScript Object Notation format (JSON) in row-major order
http://www.bom.gov.au/fwo/IDN60801/IDN60801.94588.json